sensor_id;sensor_type;location;lat;lon;timestamp;P1;durP1;ratioP1;P2;durP2;ratioP2
39486;SDS011;25173;50.430;18.926;2022-12-29T00:02:33;26.40;;;12.77;;
39486;SDS011;25173;50.430;18.926;2022-12-29T00:05:34;19.27;;;11.48;;
39486;SDS011;25173;50.430;18.926;2022-12-29T00:08:35;26.30;;;12.57;;
39486;SDS011;25173;50.430;18.926;2022-12-29T00:11:41;21.10;;;12.13;;
39486;SDS011;25173;50.430;18.926;2022-12-29T00:14:42;21.00;;;10.13;;
39486;SDS011;25173;50.430;18.926;2022-12-29T00:18:01;17.58;;;10.05;;
39486;SDS011;25173;50.430;18.926;2022-12-29T00:21:02;22.30;;;11.30;;
39486;SDS011;25173;50.430;18.926;2022-12-29T00:24:21;22.60;;;11.48;;
39486;SDS011;25173;50.430;18.926;2022-12-29T00:27:41;21.33;;;10.95;;
39486;SDS011;25173;50.430;18.926;2022-12-29T00:31:00;21.55;;;10.43;;
39486;SDS011;25173;50.430;18.926;2022-12-29T00:34:20;20.02;;;11.10;;
39486;SDS011;25173;50.430;18.926;2022-12-29T00:37:40;20.02;;;10.82;;
39486;SDS011;25173;50.430;18.926;2022-12-29T00:41:03;20.05;;;10.73;;
39486;SDS011;25173;50.430;18.926;2022-12-29T00:44:22;27.05;;;11.23;;
39486;SDS011;25173;50.430;18.926;2022-12-29T00:47:23;19.50;;;10.00;;
39486;SDS011;25173;50.430;18.926;2022-12-29T00:50:23;15.10;;;8.77;;
39486;SDS011;25173;50.430;18.926;2022-12-29T00:53:24;18.55;;;9.25;;
39486;SDS011;25173;50.430;18.926;2022-12-29T00:56:24;13.82;;;7.18;;
39486;SDS011;25173;50.430;18.926;2022-12-29T00:59:25;16.38;;;8.75;;
39486;SDS011;25173;50.430;18.926;2022-12-29T01:02:26;19.40;;;8.57;;
39486;SDS011;25173;50.430;18.926;2022-12-29T01:05:26;19.77;;;11.05;;
39486;SDS011;25173;50.430;18.926;2022-12-29T01:08:28;17.63;;;9.63;;
39486;SDS011;25173;50.430;18.926;2022-12-29T01:11:29;20.27;;;10.05;;
39486;SDS011;25173;50.430;18.926;2022-12-29T01:14:29;14.05;;;8.48;;
39486;SDS011;25173;50.430;18.926;2022-12-29T01:17:31;15.10;;;8.50;;
39486;SDS011;25173;50.430;18.926;2022-12-29T01:20:31;17.42;;;10.02;;
39486;SDS011;25173;50.430;18.926;2022-12-29T01:23:32;17.80;;;9.98;;
39486;SDS011;25173;50.430;18.926;2022-12-29T01:26:33;22.65;;;11.07;;
39486;SDS011;25173;50.430;18.926;2022-12-29T01:29:34;19.17;;;10.25;;
39486;SDS011;25173;50.430;18.926;2022-12-29T01:32:35;20.05;;;10.40;;
39486;SDS011;25173;50.430;18.926;2022-12-29T01:35:36;17.85;;;10.07;;
39486;SDS011;25173;50.430;18.926;2022-12-29T01:38:37;19.75;;;10.38;;
39486;SDS011;25173;50.430;18.926;2022-12-29T01:41:38;18.40;;;10.27;;
39486;SDS011;25173;50.430;18.926;2022-12-29T01:47:55;16.98;;;9.75;;
39486;SDS011;25173;50.430;18.926;2022-12-29T01:51:04;18.48;;;11.50;;
39486;SDS011;25173;50.430;18.926;2022-12-29T01:54:05;22.00;;;11.48;;
39486;SDS011;25173;50.430;18.926;2022-12-29T02:00:13;19.60;;;9.77;;
39486;SDS011;25173;50.430;18.926;2022-12-29T02:03:15;19.10;;;10.30;;
39486;SDS011;25173;50.430;18.926;2022-12-29T02:06:21;24.02;;;13.43;;
39486;SDS011;25173;50.430;18.926;2022-12-29T02:09:24;21.27;;;13.27;;
39486;SDS011;25173;50.430;18.926;2022-12-29T02:12:24;26.48;;;13.10;;
39486;SDS011;25173;50.430;18.926;2022-12-29T02:15:48;23.70;;;12.80;;
39486;SDS011;25173;50.430;18.926;2022-12-29T02:31:52;21.98;;;11.15;;
39486;SDS011;25173;50.430;18.926;2022-12-29T02:41:38;16.25;;;9.02;;
39486;SDS011;25173;50.430;18.926;2022-12-29T02:51:09;13.25;;;7.90;;
39486;SDS011;25173;50.430;18.926;2022-12-29T02:54:19;12.57;;;7.00;;
39486;SDS011;25173;50.430;18.926;2022-12-29T02:57:40;12.60;;;7.50;;
39486;SDS011;25173;50.430;18.926;2022-12-29T03:00:48;10.90;;;6.32;;
39486;SDS011;25173;50.430;18.926;2022-12-29T03:04:18;11.27;;;6.28;;
39486;SDS011;25173;50.430;18.926;2022-12-29T03:07:39;10.95;;;6.50;;
39486;SDS011;25173;50.430;18.926;2022-12-29T03:25:01;10.93;;;6.47;;
39486;SDS011;25173;50.430;18.926;2022-12-29T03:28:23;9.60;;;6.65;;
39486;SDS011;25173;50.430;18.926;2022-12-29T03:31:30;8.95;;;5.60;;
39486;SDS011;25173;50.430;18.926;2022-12-29T03:34:31;11.05;;;6.15;;
39486;SDS011;25173;50.430;18.926;2022-12-29T03:37:39;8.52;;;5.15;;
39486;SDS011;25173;50.430;18.926;2022-12-29T03:40:44;6.20;;;3.85;;
39486;SDS011;25173;50.430;18.926;2022-12-29T03:43:48;5.93;;;4.03;;
39486;SDS011;25173;50.430;18.926;2022-12-29T03:46:49;6.95;;;5.13;;
39486;SDS011;25173;50.430;18.926;2022-12-29T03:49:50;7.90;;;4.75;;
39486;SDS011;25173;50.430;18.926;2022-12-29T03:52:51;7.55;;;4.95;;
39486;SDS011;25173;50.430;18.926;2022-12-29T03:55:52;9.52;;;4.57;;
39486;SDS011;25173;50.430;18.926;2022-12-29T03:58:53;9.38;;;5.28;;
39486;SDS011;25173;50.430;18.926;2022-12-29T04:02:14;8.55;;;5.25;;
39486;SDS011;25173;50.430;18.926;2022-12-29T04:05:15;9.32;;;5.65;;
39486;SDS011;25173;50.430;18.926;2022-12-29T04:08:16;7.38;;;4.95;;
39486;SDS011;25173;50.430;18.926;2022-12-29T04:11:17;9.60;;;6.25;;
39486;SDS011;25173;50.430;18.926;2022-12-29T04:14:18;6.80;;;4.90;;
39486;SDS011;25173;50.430;18.926;2022-12-29T04:17:18;10.18;;;4.75;;
39486;SDS011;25173;50.430;18.926;2022-12-29T04:20:21;7.35;;;5.05;;
39486;SDS011;25173;50.430;18.926;2022-12-29T04:23:41;12.60;;;7.13;;
39486;SDS011;25173;50.430;18.926;2022-12-29T04:26:43;10.57;;;6.70;;
39486;SDS011;25173;50.430;18.926;2022-12-29T04:30:02;8.95;;;5.65;;
39486;SDS011;25173;50.430;18.926;2022-12-29T04:33:21;13.15;;;7.72;;
39486;SDS011;25173;50.430;18.926;2022-12-29T04:36:22;8.88;;;6.43;;
39486;SDS011;25173;50.430;18.926;2022-12-29T04:39:23;9.68;;;6.55;;
39486;SDS011;25173;50.430;18.926;2022-12-29T04:42:24;10.63;;;6.50;;
39486;SDS011;25173;50.430;18.926;2022-12-29T04:45:25;10.23;;;6.43;;
39486;SDS011;25173;50.430;18.926;2022-12-29T04:48:34;14.35;;;7.32;;
39486;SDS011;25173;50.430;18.926;2022-12-29T04:51:53;15.30;;;9.05;;
39486;SDS011;25173;50.430;18.926;2022-12-29T04:54:54;18.45;;;10.60;;
39486;SDS011;25173;50.430;18.926;2022-12-29T04:57:56;22.70;;;12.40;;
39486;SDS011;25173;50.430;18.926;2022-12-29T05:00:57;18.95;;;11.68;;
39486;SDS011;25173;50.430;18.926;2022-12-29T05:04:00;17.02;;;10.02;;
39486;SDS011;25173;50.430;18.926;2022-12-29T05:07:01;16.05;;;9.27;;
39486;SDS011;25173;50.430;18.926;2022-12-29T05:10:02;12.25;;;6.80;;
39486;SDS011;25173;50.430;18.926;2022-12-29T05:13:04;14.00;;;7.57;;
39486;SDS011;25173;50.430;18.926;2022-12-29T05:16:05;11.23;;;7.20;;
39486;SDS011;25173;50.430;18.926;2022-12-29T05:19:06;14.68;;;8.15;;
39486;SDS011;25173;50.430;18.926;2022-12-29T05:22:07;14.75;;;9.02;;
39486;SDS011;25173;50.430;18.926;2022-12-29T05:25:08;17.40;;;8.52;;
39486;SDS011;25173;50.430;18.926;2022-12-29T05:28:21;18.60;;;10.80;;
39486;SDS011;25173;50.430;18.926;2022-12-29T05:31:23;25.55;;;13.63;;
39486;SDS011;25173;50.430;18.926;2022-12-29T05:34:26;33.67;;;17.83;;
39486;SDS011;25173;50.430;18.926;2022-12-29T05:37:27;51.03;;;25.73;;
39486;SDS011;25173;50.430;18.926;2022-12-29T05:40:28;60.30;;;24.98;;
39486;SDS011;25173;50.430;18.926;2022-12-29T05:43:33;30.17;;;15.35;;
39486;SDS011;25173;50.430;18.926;2022-12-29T05:46:49;39.13;;;18.55;;
39486;SDS011;25173;50.430;18.926;2022-12-29T05:50:09;35.38;;;19.20;;
39486;SDS011;25173;50.430;18.926;2022-12-29T05:53:28;40.30;;;20.75;;
39486;SDS011;25173;50.430;18.926;2022-12-29T05:56:30;41.20;;;19.92;;
39486;SDS011;25173;50.430;18.926;2022-12-29T05:59:33;36.65;;;18.25;;
39486;SDS011;25173;50.430;18.926;2022-12-29T06:02:34;35.97;;;16.80;;
39486;SDS011;25173;50.430;18.926;2022-12-29T06:05:36;29.50;;;14.75;;
39486;SDS011;25173;50.430;18.926;2022-12-29T06:08:37;29.50;;;15.68;;
39486;SDS011;25173;50.430;18.926;2022-12-29T06:11:38;22.23;;;13.23;;
39486;SDS011;25173;50.430;18.926;2022-12-29T06:14:39;21.48;;;11.52;;
39486;SDS011;25173;50.430;18.926;2022-12-29T06:17:40;17.92;;;10.25;;
39486;SDS011;25173;50.430;18.926;2022-12-29T06:20:41;21.80;;;11.77;;
39486;SDS011;25173;50.430;18.926;2022-12-29T06:23:42;18.70;;;11.52;;
39486;SDS011;25173;50.430;18.926;2022-12-29T06:26:44;24.67;;;12.95;;
39486;SDS011;25173;50.430;18.926;2022-12-29T06:29:44;22.30;;;12.20;;
39486;SDS011;25173;50.430;18.926;2022-12-29T06:32:45;18.35;;;10.40;;
39486;SDS011;25173;50.430;18.926;2022-12-29T06:35:47;24.55;;;13.10;;
39486;SDS011;25173;50.430;18.926;2022-12-29T06:38:48;38.05;;;23.98;;
39486;SDS011;25173;50.430;18.926;2022-12-29T06:41:52;38.20;;;22.75;;
39486;SDS011;25173;50.430;18.926;2022-12-29T06:45:15;19.95;;;11.63;;
39486;SDS011;25173;50.430;18.926;2022-12-29T06:48:16;22.15;;;12.15;;
39486;SDS011;25173;50.430;18.926;2022-12-29T06:51:16;20.33;;;12.38;;
39486;SDS011;25173;50.430;18.926;2022-12-29T06:54:17;23.45;;;13.25;;
39486;SDS011;25173;50.430;18.926;2022-12-29T06:57:18;25.05;;;13.75;;
39486;SDS011;25173;50.430;18.926;2022-12-29T07:00:18;20.63;;;11.18;;
39486;SDS011;25173;50.430;18.926;2022-12-29T07:03:19;27.98;;;16.90;;
39486;SDS011;25173;50.430;18.926;2022-12-29T07:06:20;26.63;;;16.02;;
39486;SDS011;25173;50.430;18.926;2022-12-29T07:09:21;31.20;;;16.60;;
39486;SDS011;25173;50.430;18.926;2022-12-29T07:12:22;35.15;;;19.58;;
39486;SDS011;25173;50.430;18.926;2022-12-29T07:15:23;44.22;;;24.20;;
39486;SDS011;25173;50.430;18.926;2022-12-29T07:18:23;48.83;;;25.20;;
39486;SDS011;25173;50.430;18.926;2022-12-29T07:21:24;40.88;;;22.35;;
39486;SDS011;25173;50.430;18.926;2022-12-29T07:24:25;27.85;;;13.50;;
39486;SDS011;25173;50.430;18.926;2022-12-29T07:27:26;23.00;;;12.77;;
39486;SDS011;25173;50.430;18.926;2022-12-29T07:30:27;22.08;;;12.43;;
39486;SDS011;25173;50.430;18.926;2022-12-29T07:33:28;19.92;;;12.93;;
39486;SDS011;25173;50.430;18.926;2022-12-29T07:36:29;22.10;;;12.77;;
39486;SDS011;25173;50.430;18.926;2022-12-29T07:39:30;25.70;;;15.13;;
39486;SDS011;25173;50.430;18.926;2022-12-29T07:42:31;33.92;;;19.67;;
39486;SDS011;25173;50.430;18.926;2022-12-29T07:45:33;25.33;;;11.90;;
39486;SDS011;25173;50.430;18.926;2022-12-29T07:48:43;35.58;;;16.90;;
39486;SDS011;25173;50.430;18.926;2022-12-29T07:51:43;27.27;;;14.25;;
39486;SDS011;25173;50.430;18.926;2022-12-29T07:54:44;31.20;;;16.02;;
39486;SDS011;25173;50.430;18.926;2022-12-29T07:57:45;35.78;;;18.23;;
39486;SDS011;25173;50.430;18.926;2022-12-29T08:00:46;34.85;;;17.70;;
39486;SDS011;25173;50.430;18.926;2022-12-29T08:03:46;33.13;;;17.85;;
39486;SDS011;25173;50.430;18.926;2022-12-29T08:06:47;25.50;;;14.38;;
39486;SDS011;25173;50.430;18.926;2022-12-29T08:09:48;42.72;;;21.77;;
39486;SDS011;25173;50.430;18.926;2022-12-29T08:12:49;27.42;;;16.80;;
39486;SDS011;25173;50.430;18.926;2022-12-29T08:15:50;18.80;;;11.95;;
39486;SDS011;25173;50.430;18.926;2022-12-29T08:18:51;20.10;;;12.60;;
39486;SDS011;25173;50.430;18.926;2022-12-29T08:21:52;20.92;;;11.60;;
39486;SDS011;25173;50.430;18.926;2022-12-29T08:24:53;22.63;;;12.05;;
39486;SDS011;25173;50.430;18.926;2022-12-29T08:27:53;22.70;;;13.32;;
39486;SDS011;25173;50.430;18.926;2022-12-29T08:30:56;32.95;;;21.10;;
39486;SDS011;25173;50.430;18.926;2022-12-29T08:33:58;40.83;;;23.48;;
39486;SDS011;25173;50.430;18.926;2022-12-29T08:37:00;34.97;;;17.75;;
39486;SDS011;25173;50.430;18.926;2022-12-29T08:40:01;23.15;;;12.00;;
39486;SDS011;25173;50.430;18.926;2022-12-29T08:43:04;20.65;;;12.35;;
39486;SDS011;25173;50.430;18.926;2022-12-29T08:46:04;28.50;;;15.25;;
39486;SDS011;25173;50.430;18.926;2022-12-29T08:49:05;32.47;;;17.27;;
39486;SDS011;25173;50.430;18.926;2022-12-29T08:52:07;20.10;;;11.05;;
39486;SDS011;25173;50.430;18.926;2022-12-29T08:55:08;27.88;;;13.88;;
39486;SDS011;25173;50.430;18.926;2022-12-29T08:58:10;21.13;;;11.93;;
39486;SDS011;25173;50.430;18.926;2022-12-29T09:01:15;16.63;;;9.57;;
39486;SDS011;25173;50.430;18.926;2022-12-29T09:04:15;17.83;;;9.55;;
39486;SDS011;25173;50.430;18.926;2022-12-29T09:07:16;16.00;;;9.27;;
39486;SDS011;25173;50.430;18.926;2022-12-29T09:10:17;15.55;;;10.00;;
39486;SDS011;25173;50.430;18.926;2022-12-29T09:13:17;28.05;;;14.65;;
39486;SDS011;25173;50.430;18.926;2022-12-29T09:16:19;49.15;;;23.25;;
39486;SDS011;25173;50.430;18.926;2022-12-29T09:19:21;69.95;;;32.35;;
39486;SDS011;25173;50.430;18.926;2022-12-29T09:22:21;37.47;;;17.30;;
39486;SDS011;25173;50.430;18.926;2022-12-29T09:25:22;20.45;;;11.90;;
39486;SDS011;25173;50.430;18.926;2022-12-29T09:28:24;17.85;;;11.27;;
39486;SDS011;25173;50.430;18.926;2022-12-29T09:31:25;16.10;;;8.65;;
39486;SDS011;25173;50.430;18.926;2022-12-29T09:34:26;16.27;;;9.45;;
39486;SDS011;25173;50.430;18.926;2022-12-29T09:37:26;17.58;;;9.27;;
39486;SDS011;25173;50.430;18.926;2022-12-29T09:46:37;21.90;;;12.85;;
39486;SDS011;25173;50.430;18.926;2022-12-29T09:49:46;22.00;;;10.57;;
39486;SDS011;25173;50.430;18.926;2022-12-29T09:52:58;19.05;;;11.15;;
39486;SDS011;25173;50.430;18.926;2022-12-29T09:56:01;17.13;;;9.77;;
39486;SDS011;25173;50.430;18.926;2022-12-29T09:59:17;19.00;;;9.55;;
39486;SDS011;25173;50.430;18.926;2022-12-29T10:02:29;21.95;;;10.75;;
39486;SDS011;25173;50.430;18.926;2022-12-29T10:11:52;26.25;;;13.85;;
39486;SDS011;25173;50.430;18.926;2022-12-29T10:15:33;21.42;;;11.52;;
39486;SDS011;25173;50.430;18.926;2022-12-29T10:25:16;18.45;;;11.52;;
39486;SDS011;25173;50.430;18.926;2022-12-29T10:28:21;35.13;;;18.70;;
39486;SDS011;25173;50.430;18.926;2022-12-29T10:31:47;52.00;;;26.58;;
39486;SDS011;25173;50.430;18.926;2022-12-29T10:35:13;36.72;;;15.82;;
39486;SDS011;25173;50.430;18.926;2022-12-29T10:38:27;25.00;;;14.27;;
39486;SDS011;25173;50.430;18.926;2022-12-29T10:41:49;32.92;;;18.33;;
39486;SDS011;25173;50.430;18.926;2022-12-29T10:44:55;45.33;;;26.33;;
39486;SDS011;25173;50.430;18.926;2022-12-29T10:51:09;79.82;;;43.53;;
39486;SDS011;25173;50.430;18.926;2022-12-29T10:54:15;59.53;;;34.70;;
39486;SDS011;25173;50.430;18.926;2022-12-29T10:57:37;29.70;;;18.13;;
39486;SDS011;25173;50.430;18.926;2022-12-29T11:00:48;68.68;;;42.05;;
39486;SDS011;25173;50.430;18.926;2022-12-29T11:07:01;45.05;;;20.88;;
39486;SDS011;25173;50.430;18.926;2022-12-29T11:13:32;53.42;;;23.67;;
39486;SDS011;25173;50.430;18.926;2022-12-29T11:16:35;33.63;;;16.73;;
39486;SDS011;25173;50.430;18.926;2022-12-29T11:19:36;29.95;;;13.63;;
39486;SDS011;25173;50.430;18.926;2022-12-29T11:22:38;20.80;;;12.90;;
39486;SDS011;25173;50.430;18.926;2022-12-29T11:25:44;22.05;;;12.68;;
39486;SDS011;25173;50.430;18.926;2022-12-29T11:28:46;17.20;;;9.73;;
39486;SDS011;25173;50.430;18.926;2022-12-29T11:32:12;26.23;;;13.68;;
39486;SDS011;25173;50.430;18.926;2022-12-29T11:35:38;21.13;;;12.13;;
39486;SDS011;25173;50.430;18.926;2022-12-29T11:38:45;22.92;;;12.57;;
39486;SDS011;25173;50.430;18.926;2022-12-29T11:41:52;31.13;;;15.63;;
39486;SDS011;25173;50.430;18.926;2022-12-29T11:44:54;29.70;;;14.85;;
39486;SDS011;25173;50.430;18.926;2022-12-29T11:47:56;29.23;;;16.90;;
39486;SDS011;25173;50.430;18.926;2022-12-29T11:50:59;40.90;;;22.83;;
39486;SDS011;25173;50.430;18.926;2022-12-29T11:54:00;29.92;;;16.77;;
39486;SDS011;25173;50.430;18.926;2022-12-29T11:57:09;21.40;;;13.45;;
39486;SDS011;25173;50.430;18.926;2022-12-29T12:00:16;34.25;;;18.40;;
39486;SDS011;25173;50.430;18.926;2022-12-29T12:03:25;47.97;;;25.85;;
39486;SDS011;25173;50.430;18.926;2022-12-29T12:06:27;43.70;;;22.58;;
39486;SDS011;25173;50.430;18.926;2022-12-29T12:09:37;30.90;;;17.35;;
39486;SDS011;25173;50.430;18.926;2022-12-29T12:12:48;35.17;;;21.02;;
39486;SDS011;25173;50.430;18.926;2022-12-29T12:16:16;19.73;;;12.55;;
39486;SDS011;25173;50.430;18.926;2022-12-29T12:23:02;36.63;;;18.92;;
39486;SDS011;25173;50.430;18.926;2022-12-29T12:29:14;25.48;;;15.60;;
39486;SDS011;25173;50.430;18.926;2022-12-29T13:15:21;37.65;;;21.38;;
39486;SDS011;25173;50.430;18.926;2022-12-29T13:18:30;53.38;;;27.83;;
39486;SDS011;25173;50.430;18.926;2022-12-29T13:24:56;43.90;;;24.88;;
39486;SDS011;25173;50.430;18.926;2022-12-29T13:31:18;41.38;;;20.90;;
39486;SDS011;25173;50.430;18.926;2022-12-29T13:37:32;35.30;;;21.35;;
39486;SDS011;25173;50.430;18.926;2022-12-29T13:40:38;40.72;;;23.40;;
39486;SDS011;25173;50.430;18.926;2022-12-29T13:43:44;37.78;;;20.17;;
39486;SDS011;25173;50.430;18.926;2022-12-29T13:46:47;42.65;;;22.70;;
39486;SDS011;25173;50.430;18.926;2022-12-29T13:49:49;26.30;;;14.00;;
39486;SDS011;25173;50.430;18.926;2022-12-29T13:56:09;45.55;;;26.00;;
39486;SDS011;25173;50.430;18.926;2022-12-29T14:03:08;25.48;;;13.73;;
39486;SDS011;25173;50.430;18.926;2022-12-29T14:05:39;29.42;;;15.93;;
39486;SDS011;25173;50.430;18.926;2022-12-29T14:08:40;41.17;;;20.23;;
39486;SDS011;25173;50.430;18.926;2022-12-29T14:11:41;34.03;;;16.83;;
39486;SDS011;25173;50.430;18.926;2022-12-29T14:14:42;32.72;;;17.60;;
39486;SDS011;25173;50.430;18.926;2022-12-29T14:17:43;33.85;;;19.58;;
39486;SDS011;25173;50.430;18.926;2022-12-29T14:20:52;60.50;;;32.05;;
39486;SDS011;25173;50.430;18.926;2022-12-29T14:23:53;45.75;;;25.02;;
39486;SDS011;25173;50.430;18.926;2022-12-29T14:26:54;42.42;;;21.67;;
39486;SDS011;25173;50.430;18.926;2022-12-29T14:29:55;50.20;;;22.98;;
39486;SDS011;25173;50.430;18.926;2022-12-29T14:33:02;28.38;;;18.30;;
39486;SDS011;25173;50.430;18.926;2022-12-29T14:36:23;29.50;;;17.30;;
39486;SDS011;25173;50.430;18.926;2022-12-29T14:39:41;31.67;;;18.45;;
39486;SDS011;25173;50.430;18.926;2022-12-29T14:42:43;38.05;;;20.13;;
39486;SDS011;25173;50.430;18.926;2022-12-29T14:45:51;44.08;;;24.20;;
39486;SDS011;25173;50.430;18.926;2022-12-29T14:48:55;46.60;;;25.60;;
39486;SDS011;25173;50.430;18.926;2022-12-29T14:58:47;75.55;;;41.33;;
39486;SDS011;25173;50.430;18.926;2022-12-29T15:01:56;75.82;;;39.38;;
39486;SDS011;25173;50.430;18.926;2022-12-29T15:04:59;79.63;;;45.97;;
39486;SDS011;25173;50.430;18.926;2022-12-29T15:08:02;74.93;;;41.97;;
39486;SDS011;25173;50.430;18.926;2022-12-29T15:11:05;38.83;;;22.13;;
39486;SDS011;25173;50.430;18.926;2022-12-29T15:17:32;82.45;;;40.05;;
39486;SDS011;25173;50.430;18.926;2022-12-29T15:20:34;59.10;;;32.90;;
39486;SDS011;25173;50.430;18.926;2022-12-29T15:23:35;61.08;;;34.13;;
39486;SDS011;25173;50.430;18.926;2022-12-29T15:26:42;87.28;;;42.97;;
39486;SDS011;25173;50.430;18.926;2022-12-29T15:29:45;59.20;;;32.95;;
39486;SDS011;25173;50.430;18.926;2022-12-29T15:32:47;43.65;;;25.20;;
39486;SDS011;25173;50.430;18.926;2022-12-29T15:35:50;61.97;;;36.22;;
39486;SDS011;25173;50.430;18.926;2022-12-29T15:38:52;65.93;;;37.45;;
39486;SDS011;25173;50.430;18.926;2022-12-29T15:41:55;80.85;;;41.80;;
39486;SDS011;25173;50.430;18.926;2022-12-29T15:45:02;77.40;;;40.33;;
39486;SDS011;25173;50.430;18.926;2022-12-29T15:48:04;76.53;;;41.88;;
39486;SDS011;25173;50.430;18.926;2022-12-29T15:51:27;85.35;;;45.25;;
39486;SDS011;25173;50.430;18.926;2022-12-29T15:57:41;123.15;;;58.95;;
39486;SDS011;25173;50.430;18.926;2022-12-29T16:00:46;95.75;;;42.28;;
39486;SDS011;25173;50.430;18.926;2022-12-29T16:03:53;72.50;;;39.05;;
39486;SDS011;25173;50.430;18.926;2022-12-29T16:07:04;94.47;;;41.03;;
39486;SDS011;25173;50.430;18.926;2022-12-29T16:10:21;80.43;;;40.85;;
39486;SDS011;25173;50.430;18.926;2022-12-29T16:13:42;88.78;;;40.67;;
39486;SDS011;25173;50.430;18.926;2022-12-29T16:16:44;70.15;;;34.10;;
39486;SDS011;25173;50.430;18.926;2022-12-29T16:19:55;79.95;;;37.83;;
39486;SDS011;25173;50.430;18.926;2022-12-29T16:22:58;67.30;;;32.97;;
39486;SDS011;25173;50.430;18.926;2022-12-29T16:26:00;59.92;;;30.85;;
39486;SDS011;25173;50.430;18.926;2022-12-29T16:29:01;49.45;;;26.80;;
39486;SDS011;25173;50.430;18.926;2022-12-29T16:32:23;55.38;;;28.67;;
39486;SDS011;25173;50.430;18.926;2022-12-29T16:35:38;57.90;;;30.30;;
39486;SDS011;25173;50.430;18.926;2022-12-29T16:38:46;46.45;;;23.60;;
39486;SDS011;25173;50.430;18.926;2022-12-29T16:41:47;41.30;;;23.60;;
39486;SDS011;25173;50.430;18.926;2022-12-29T16:44:50;48.63;;;26.25;;
39486;SDS011;25173;50.430;18.926;2022-12-29T16:51:05;45.42;;;24.30;;
39486;SDS011;25173;50.430;18.926;2022-12-29T16:54:18;56.95;;;26.77;;
39486;SDS011;25173;50.430;18.926;2022-12-29T16:57:26;43.80;;;24.35;;
39486;SDS011;25173;50.430;18.926;2022-12-29T17:00:32;36.17;;;20.90;;
39486;SDS011;25173;50.430;18.926;2022-12-29T17:03:40;42.13;;;22.88;;
39486;SDS011;25173;50.430;18.926;2022-12-29T17:06:44;42.15;;;23.45;;
39486;SDS011;25173;50.430;18.926;2022-12-29T17:09:45;56.53;;;29.77;;
39486;SDS011;25173;50.430;18.926;2022-12-29T17:12:46;49.92;;;27.58;;
39486;SDS011;25173;50.430;18.926;2022-12-29T17:15:48;52.45;;;35.25;;
39486;SDS011;25173;50.430;18.926;2022-12-29T17:18:49;48.65;;;33.53;;
39486;SDS011;25173;50.430;18.926;2022-12-29T17:21:50;32.03;;;21.02;;
39486;SDS011;25173;50.430;18.926;2022-12-29T17:24:51;30.98;;;17.90;;
39486;SDS011;25173;50.430;18.926;2022-12-29T17:27:58;35.33;;;19.88;;
39486;SDS011;25173;50.430;18.926;2022-12-29T17:31:02;40.08;;;22.70;;
39486;SDS011;25173;50.430;18.926;2022-12-29T17:34:06;37.25;;;20.85;;
39486;SDS011;25173;50.430;18.926;2022-12-29T17:40:25;40.13;;;23.58;;
39486;SDS011;25173;50.430;18.926;2022-12-29T17:43:28;35.45;;;21.23;;
39486;SDS011;25173;50.430;18.926;2022-12-29T17:46:29;36.53;;;20.25;;
39486;SDS011;25173;50.430;18.926;2022-12-29T17:49:29;32.63;;;19.67;;
39486;SDS011;25173;50.430;18.926;2022-12-29T17:52:30;41.90;;;23.83;;
39486;SDS011;25173;50.430;18.926;2022-12-29T17:55:32;41.33;;;22.00;;
39486;SDS011;25173;50.430;18.926;2022-12-29T17:58:33;36.15;;;18.95;;
39486;SDS011;25173;50.430;18.926;2022-12-29T18:01:34;25.00;;;14.13;;
39486;SDS011;25173;50.430;18.926;2022-12-29T18:04:35;26.02;;;15.65;;
39486;SDS011;25173;50.430;18.926;2022-12-29T18:07:35;27.40;;;16.73;;
39486;SDS011;25173;50.430;18.926;2022-12-29T18:10:36;33.40;;;19.23;;
39486;SDS011;25173;50.430;18.926;2022-12-29T18:13:38;33.17;;;18.45;;
39486;SDS011;25173;50.430;18.926;2022-12-29T18:16:38;29.33;;;16.40;;
39486;SDS011;25173;50.430;18.926;2022-12-29T18:19:39;23.92;;;14.82;;
39486;SDS011;25173;50.430;18.926;2022-12-29T18:22:40;23.15;;;14.43;;
39486;SDS011;25173;50.430;18.926;2022-12-29T18:25:41;29.10;;;15.38;;
39486;SDS011;25173;50.430;18.926;2022-12-29T18:28:45;23.30;;;13.52;;
39486;SDS011;25173;50.430;18.926;2022-12-29T18:31:48;19.63;;;12.45;;
39486;SDS011;25173;50.430;18.926;2022-12-29T18:34:49;26.00;;;14.60;;
39486;SDS011;25173;50.430;18.926;2022-12-29T18:37:49;26.08;;;14.68;;
39486;SDS011;25173;50.430;18.926;2022-12-29T18:40:50;25.25;;;14.52;;
39486;SDS011;25173;50.430;18.926;2022-12-29T18:43:51;27.08;;;14.48;;
39486;SDS011;25173;50.430;18.926;2022-12-29T18:46:52;26.45;;;15.60;;
39486;SDS011;25173;50.430;18.926;2022-12-29T18:49:54;31.92;;;17.83;;
39486;SDS011;25173;50.430;18.926;2022-12-29T18:52:54;26.85;;;15.02;;
39486;SDS011;25173;50.430;18.926;2022-12-29T18:55:55;27.75;;;16.05;;
39486;SDS011;25173;50.430;18.926;2022-12-29T18:58:58;33.97;;;20.88;;
39486;SDS011;25173;50.430;18.926;2022-12-29T19:01:59;57.15;;;31.35;;
39486;SDS011;25173;50.430;18.926;2022-12-29T19:05:00;55.25;;;31.55;;
39486;SDS011;25173;50.430;18.926;2022-12-29T19:08:01;70.00;;;36.15;;
39486;SDS011;25173;50.430;18.926;2022-12-29T19:11:01;46.50;;;25.05;;
39486;SDS011;25173;50.430;18.926;2022-12-29T19:14:03;43.72;;;24.25;;
39486;SDS011;25173;50.430;18.926;2022-12-29T19:17:03;46.80;;;24.95;;
39486;SDS011;25173;50.430;18.926;2022-12-29T19:20:04;38.67;;;19.60;;
39486;SDS011;25173;50.430;18.926;2022-12-29T19:23:06;38.75;;;22.73;;
39486;SDS011;25173;50.430;18.926;2022-12-29T19:29:42;32.63;;;19.67;;
39486;SDS011;25173;50.430;18.926;2022-12-29T19:32:43;37.35;;;20.88;;
39486;SDS011;25173;50.430;18.926;2022-12-29T19:35:43;36.72;;;22.10;;
39486;SDS011;25173;50.430;18.926;2022-12-29T19:38:44;28.48;;;17.83;;
39486;SDS011;25173;50.430;18.926;2022-12-29T19:41:45;33.80;;;19.73;;
39486;SDS011;25173;50.430;18.926;2022-12-29T19:44:45;35.95;;;20.17;;
39486;SDS011;25173;50.430;18.926;2022-12-29T19:47:46;34.00;;;20.65;;
39486;SDS011;25173;50.430;18.926;2022-12-29T19:50:47;35.53;;;21.50;;
39486;SDS011;25173;50.430;18.926;2022-12-29T19:53:48;34.35;;;21.23;;
39486;SDS011;25173;50.430;18.926;2022-12-29T19:56:48;38.85;;;23.33;;
39486;SDS011;25173;50.430;18.926;2022-12-29T19:59:49;39.72;;;22.13;;
39486;SDS011;25173;50.430;18.926;2022-12-29T20:02:50;46.85;;;25.10;;
39486;SDS011;25173;50.430;18.926;2022-12-29T20:05:51;49.85;;;26.20;;
39486;SDS011;25173;50.430;18.926;2022-12-29T20:08:51;52.35;;;30.90;;
39486;SDS011;25173;50.430;18.926;2022-12-29T20:11:52;53.05;;;31.25;;
39486;SDS011;25173;50.430;18.926;2022-12-29T20:14:53;58.67;;;34.72;;
39486;SDS011;25173;50.430;18.926;2022-12-29T20:17:53;63.50;;;39.13;;
39486;SDS011;25173;50.430;18.926;2022-12-29T20:21:03;42.58;;;28.00;;
39486;SDS011;25173;50.430;18.926;2022-12-29T20:24:06;38.75;;;24.95;;
39486;SDS011;25173;50.430;18.926;2022-12-29T20:27:08;46.72;;;28.30;;
39486;SDS011;25173;50.430;18.926;2022-12-29T20:30:10;93.53;;;57.25;;
39486;SDS011;25173;50.430;18.926;2022-12-29T20:33:12;87.22;;;48.58;;